Aristomenis — D5OA5 — position and weather

sailwx.info

Track history (hours):
 
Tides and Currents Weather Stations Pressure Air Temp Water Temp Dewpoint Dewpoint Depression Visibility Wind Speed Wind Dir Waves Ship Positions

Aristomenis

Last reported at 2017-Dec-17 16:57 UTC. Time now 2017-Dec-17 17:21 UTC.
Position N 32°08' W 081°09'.

Length 350 m; draft 10.4 m.

Type: Ship (hazmat cat B). MMSI: 636018070.

Date/timePositionNaut miles runAvg speedWind from/ knotsBaromVisibWave heightAir tempDewpointWater temp
2017-Dec-17 16:57N 32°08' W 081°09'0 0.0
2017-Dec-17 16:27N 32°08' W 081°09'0 0.0
2017-Dec-17 15:57N 32°08' W 081°09'0 0.0
2017-Dec-17 15:27N 32°08' W 081°09'0 0.0
2017-Dec-17 14:57N 32°08' W 081°09'0 0.0
2017-Dec-17 14:27N 32°08' W 081°09'0 0.0
2017-Dec-17 13:57N 32°08' W 081°09'0 0.0
2017-Dec-17 13:27N 32°08' W 081°09'0 0.0
2017-Dec-17 12:57N 32°08' W 081°09'0 0.0
2017-Dec-17 12:27N 32°08' W 081°09'0 0.0
2017-Dec-17 11:57N 32°08' W 081°09'0 0.0
2017-Dec-17 11:27N 32°08' W 081°09'0 0.0
2017-Dec-17 10:57N 32°08' W 081°09'0 0.0
2017-Dec-17 10:27N 32°08' W 081°09'0 0.4
2017-Dec-17 10:00N 32°08' W 081°08'2 4.2
2017-Dec-17 09:30N 32°06' W 081°07'3 6.3
2017-Dec-17 09:00N 32°05' W 081°04'4 7.4
2017-Dec-17 08:30N 32°05' W 080°59'611.5
2017-Dec-17 08:00N 32°02' W 080°54'612.5
2017-Dec-17 07:30N 31°60' W 080°47'611.5
2017-Dec-17 07:00N 31°57' W 080°41'4 7.5
2017-Dec-17 06:31N 31°57' W 080°37'4 7.9
2017-Dec-17 06:00N 31°58' W 080°32'1 1.0
2017-Dec-17 05:26N 31°57' W 080°31'0 0.1
2017-Dec-17 04:56N 31°57' W 080°31'0 0.1
2017-Dec-17 04:26N 31°57' W 080°31'0 0.0
2017-Dec-17 03:50N 31°57' W 080°31'0 0.0
2017-Dec-17 03:26N 31°57' W 080°31'0 0.0
2017-Dec-17 02:50N 31°57' W 080°31'0 0.0
2017-Dec-17 02:26N 31°57' W 080°31'0 0.0
2017-Dec-17 01:56N 31°57' W 080°31'0 0.1
2017-Dec-17 01:26N 31°57' W 080°31'0 0.1
2017-Dec-17 00:56N 31°57' W 080°31'0 0.1
2017-Dec-17 00:20N 31°57' W 080°32'0 0.1
2017-Dec-16 23:50N 31°57' W 080°32'0 0.1
2017-Dec-16 23:26N 31°58' W 080°32'0 0.1
2017-Dec-16 22:56N 31°58' W 080°32'0 0.0
2017-Dec-16 22:20N 31°58' W 080°32'0 0.0
2017-Dec-16 21:56N 31°58' W 080°32'0 0.0
2017-Dec-16 21:26N 31°58' W 080°32'0 0.0
2017-Dec-16 20:50N 31°58' W 080°32'0 0.0
2017-Dec-16 20:26N 31°58' W 080°32'0 0.0
2017-Dec-16 19:56N 31°58' W 080°32'0 0.1
2017-Dec-16 19:26N 31°58' W 080°32'0 0.1
2017-Dec-16 18:56N 31°58' W 080°32'0 0.0
2017-Dec-16 18:26N 31°57' W 080°32'0 0.3
2017-Dec-16 18:00N 31°57' W 080°31'3 5.9
2017-Dec-16 17:29N 31°56' W 080°28'5 9.7
2017-Dec-16 17:00N 31°53' W 080°24'5 9.9
2017-Dec-16 16:30N 31°49' W 080°20'  
2017-Dec-10 21:52N 09°42' W 079°44'719.7
2017-Dec-10 21:30N 09°36' W 079°48'918.7
2017-Dec-10 21:00N 09°28' W 079°54'713.7
2017-Dec-10 20:30N 09°22' W 079°55'3 7.0
2017-Dec-10 20:00N 09°18' W 079°55'2 3.2
2017-Dec-10 19:30N 09°16' W 079°55'0 0.0
2017-Dec-10 19:00N 09°16' W 079°55'0 0.5
2017-Dec-10 18:30N 09°16' W 079°55'0 0.1
2017-Dec-10 18:00N 09°16' W 079°55'0 0.4
2017-Dec-10 17:30N 09°16' W 079°55'0 0.5
2017-Dec-10 17:00N 09°16' W 079°55'0 0.8
2017-Dec-10 16:30N 09°15' W 079°55'1 2.0
2017-Dec-10 16:00N 09°14' W 079°55'3 5.1
2017-Dec-10 15:25N 09°12' W 079°54'510.8
2017-Dec-10 14:57N 09°10' W 079°49'  
Track history (hours):
 
Tides and Currents Weather Stations Pressure Air Temp Water Temp Dewpoint Dewpoint Depression Visibility Wind Speed Wind Dir Waves Ship Positions

Aristomenis

Last reported at 2017-Dec-17 16:57 UTC. Time now 2017-Dec-17 17:21 UTC.
Position N 32°08' W 081°09'.

Length 350 m; draft 10.4 m.

Type: Ship (hazmat cat B). MMSI: 636018070.

Date/timePositionNaut miles runAvg speedWind from/ knotsBaromVisibWave heightAir tempDewpointWater temp
2017-Dec-17 16:57N 32°08' W 081°09'0 0.0
2017-Dec-17 16:27N 32°08' W 081°09'0 0.0
2017-Dec-17 15:57N 32°08' W 081°09'0 0.0
2017-Dec-17 15:27N 32°08' W 081°09'0 0.0
2017-Dec-17 14:57N 32°08' W 081°09'0 0.0
2017-Dec-17 14:27N 32°08' W 081°09'0 0.0
2017-Dec-17 13:57N 32°08' W 081°09'0 0.0
2017-Dec-17 13:27N 32°08' W 081°09'0 0.0
2017-Dec-17 12:57N 32°08' W 081°09'0 0.0
2017-Dec-17 12:27N 32°08' W 081°09'0 0.0
2017-Dec-17 11:57N 32°08' W 081°09'0 0.0
2017-Dec-17 11:27N 32°08' W 081°09'0 0.0
2017-Dec-17 10:57N 32°08' W 081°09'0 0.0
2017-Dec-17 10:27N 32°08' W 081°09'0 0.4
2017-Dec-17 10:00N 32°08' W 081°08'2 4.2
2017-Dec-17 09:30N 32°06' W 081°07'3 6.3
2017-Dec-17 09:00N 32°05' W 081°04'4 7.4
2017-Dec-17 08:30N 32°05' W 080°59'611.5
2017-Dec-17 08:00N 32°02' W 080°54'612.5
2017-Dec-17 07:30N 31°60' W 080°47'611.5
2017-Dec-17 07:00N 31°57' W 080°41'4 7.5
2017-Dec-17 06:31N 31°57' W 080°37'4 7.9
2017-Dec-17 06:00N 31°58' W 080°32'1 1.0
2017-Dec-17 05:26N 31°57' W 080°31'0 0.1
2017-Dec-17 04:56N 31°57' W 080°31'0 0.1
2017-Dec-17 04:26N 31°57' W 080°31'0 0.0
2017-Dec-17 03:50N 31°57' W 080°31'0 0.0
2017-Dec-17 03:26N 31°57' W 080°31'0 0.0
2017-Dec-17 02:50N 31°57' W 080°31'0 0.0
2017-Dec-17 02:26N 31°57' W 080°31'0 0.0
2017-Dec-17 01:56N 31°57' W 080°31'0 0.1
2017-Dec-17 01:26N 31°57' W 080°31'0 0.1
2017-Dec-17 00:56N 31°57' W 080°31'0 0.1
2017-Dec-17 00:20N 31°57' W 080°32'0 0.1
2017-Dec-16 23:50N 31°57' W 080°32'0 0.1
2017-Dec-16 23:26N 31°58' W 080°32'0 0.1
2017-Dec-16 22:56N 31°58' W 080°32'0 0.0
2017-Dec-16 22:20N 31°58' W 080°32'0 0.0
2017-Dec-16 21:56N 31°58' W 080°32'0 0.0
2017-Dec-16 21:26N 31°58' W 080°32'0 0.0
2017-Dec-16 20:50N 31°58' W 080°32'0 0.0
2017-Dec-16 20:26N 31°58' W 080°32'0 0.0
2017-Dec-16 19:56N 31°58' W 080°32'0 0.1
2017-Dec-16 19:26N 31°58' W 080°32'0 0.1
2017-Dec-16 18:56N 31°58' W 080°32'0 0.0
2017-Dec-16 18:26N 31°57' W 080°32'0 0.3
2017-Dec-16 18:00N 31°57' W 080°31'3 5.9
2017-Dec-16 17:29N 31°56' W 080°28'5 9.7
2017-Dec-16 17:00N 31°53' W 080°24'5 9.9
2017-Dec-16 16:30N 31°49' W 080°20'  
2017-Dec-10 21:52N 09°42' W 079°44'719.7
2017-Dec-10 21:30N 09°36' W 079°48'918.7
2017-Dec-10 21:00N 09°28' W 079°54'713.7
2017-Dec-10 20:30N 09°22' W 079°55'3 7.0
2017-Dec-10 20:00N 09°18' W 079°55'2 3.2
2017-Dec-10 19:30N 09°16' W 079°55'0 0.0
2017-Dec-10 19:00N 09°16' W 079°55'0 0.5
2017-Dec-10 18:30N 09°16' W 079°55'0 0.1
2017-Dec-10 18:00N 09°16' W 079°55'0 0.4
2017-Dec-10 17:30N 09°16' W 079°55'0 0.5
2017-Dec-10 17:00N 09°16' W 079°55'0 0.8
2017-Dec-10 16:30N 09°15' W 079°55'1 2.0
2017-Dec-10 16:00N 09°14' W 079°55'3 5.1
2017-Dec-10 15:25N 09°12' W 079°54'510.8
2017-Dec-10 14:57N 09°10' W 079°49'  

Dump ship's entire track history